• Join FlightAware (Why Join?)
  • Login
  • US Flag 
08:04AM EDT


 

Airport Tracker/Info


-or-


 

Live Flight TrackerFlight Track Log ✈ UAL4679 ✈ 28-Apr-2013 ✈ KBTV - KEWR

Flight Track Log - Related Links

Times and Time Zones

All times are in EDT time to prevent confusion due to time zone crossing. See the UAL4679 flight status page for this flight to view local times or setup timezone preferences in your user account.

Time Position Orientation Groundspeed Altitude Reporting Facility
EDT Latitude Longitude Course Direction KTS MPH feet Rate Location/Type
09:53AM 44.3278 -73.1656 195° South 235 270 7,200  Level Boston Center
09:54AM 44.1838 -73.2541 190° South  Level FlightAware Approximate
09:54AM 44.2547 -73.1764 186° South 260 299 10,000  Level Boston Center
09:55AM 44.1115 -73.2721 190° South  Level FlightAware Approximate
09:55AM 44.1736 -73.1869 185° South 280 322 11,700  Level Boston Center
09:56AM 44.0397 -73.2941 196° South  Level FlightAware Approximate
09:56AM 44.0839 -73.1944 183° South 308 354 13,200  Level Boston Center
09:57AM 43.9691 -73.3224 196° South  Level FlightAware Approximate
09:57AM 43.9878 -73.2075 186° South 345 397 14,700  Level Boston Center
09:58AM 43.8678 -73.4059 195° South  Level FlightAware Approximate
09:58AM 43.9086 -73.2153 184° South 357 411 16,000  Level Boston Center
09:59AM 43.7814 -73.2250 183° South 365 420 17,600 960 Climbing Boston Center
10:00AM 43.6731 -73.2353 184° South 372 428 18,000 180 Climbing Boston Center
10:01AM 43.5725 -73.3025 206° Southwest 387 445 18,000  Level Boston Center
10:02AM 43.4719 -73.3842 211° Southwest 401 461 18,000  Level Boston Center
10:03AM 43.3733 -73.4656 211° Southwest 418 481 18,000  Level Boston Center
10:04AM 43.2786 -73.5467 212° Southwest 418 481 18,000  Level Boston Center
10:05AM 43.1822 -73.6189 209° Southwest 403 464 18,000 -60 Level Boston Center
10:06AM 43.0753 -73.6653 198° South 398 458 17,900 -420 Descending Boston Center
10:07AM 42.9644 -73.7111 197° South 409 471 17,200 -900 Descending Boston Center
10:08AM 42.8575 -73.7600 199° South 409 471 16,200 -600 Descending Boston Center
10:09AM 42.7547 -73.8058 198° South 403 464 16,000 -120 Descending Boston Center
10:10AM 42.6500 -73.8514 198° South 403 464 16,000  Level Boston Center
10:11AM 42.5600 -73.8889 197° South 398 458 16,100  Climbing Boston Center
10:12AM 42.4425 -73.9425 199° South 398 458 16,100  Level Boston Center
10:13AM 42.3503 -73.9825 198° South 398 458 16,100  Level Boston Center
10:14AM 42.2350 -74.0328 198° South 393 452 16,100 -120 Level Boston Center
10:15AM 42.1428 -74.0753 199° South 393 452 15,900  Descending Boston Center
10:16AM 42.0378 -74.1200 198° South 393 452 16,100 60 Climbing Boston Center
10:17AM 41.9267 -74.1672 198° South 399 459 16,100 -120 Level Boston Center
10:18AM 41.8300 -74.2092 198° South 399 459 15,900 -1,080 Descending Boston Center
10:19AM 41.7231 -74.2564 198° South 382 440 14,000 -1,920 Descending Boston Center
10:20AM 41.6433 -74.2931 199° South 362 417 12,100 -1,800 Descending Boston Center
10:21AM 41.5550 -74.3319 198° South 329 379 10,400 -1,440 Descending Boston Center
10:23AM 41.3667 -74.4000 195° South 280 322 7,200 -1,080 Descending New York TRACON
10:24AM 41.3000 -74.3667 159° South 274 315 6,800 -600 Descending New York TRACON
10:25AM 41.2333 -74.3167 151° Southeast 268 308 6,100 -840 Descending New York TRACON
10:26AM 41.1667 -74.2667 151° Southeast 266 306 5,200 -540 Descending New York TRACON
10:27AM 41.1000 -74.2333 159° South 265 305 5,100 -60 Descending New York TRACON
10:28AM 41.0333 -74.1833 150° Southeast 242 278 5,100 -60 Level New York TRACON
10:29AM 40.9833 -74.1500 153° Southeast 238 274 5,000 -600 Descending New York TRACON
10:30AM 40.9333 -74.1000 143° Southeast 237 273 4,000 -960 Descending New York TRACON
10:31AM 40.8667 -74.0667 159° South 232 267 3,100 -660 Descending New York TRACON
10:32AM 40.8167 -74.0833 194° South 184 212 2,800 -300 Descending New York TRACON